< Typhoon 201801 2018 Season
Typhoon 201802 (SANBA)
General InformationTrack Information on Google MapsDetailed Wind InformationForecast History on Google MapsAccess Analytics MapList of All Images || NewsDisaster Info.WeblogTrackbackTyphoon FrontTwiphoonTyphoon Now!Typhoon ImaginationJMA Disaster Info. XMLResourceGoogle EarthGE AnimationAtom FeedGeoJSON
Detalied Best Track (Time Zone = UTC)
Year Month Day Hour Lat. Long. Pressure (hPa) Wind (kt) Class Image Chart
2018 2 10 18 6.8 139.0 1002 30 2 Image Chart
2018 2 10 21 6.8 138.3 1002 30 2 Image Chart
2018 2 11 00 6.8 137.1 1004 30 2 Image Chart
2018 2 11 03 6.9 136.3 1004 30 2 Image Chart
2018 2 11 06 7.0 135.8 1002 35 3 Image Chart
2018 2 11 09 7.1 135.2 1002 35 3 Image Chart
2018 2 11 12 7.3 134.3 1002 35 3 Image Chart
2018 2 11 15 7.3 133.7 1002 35 3 Image Chart
2018 2 11 18 7.3 133.1 1002 35 3 Image Chart
2018 2 11 21 7.3 132.6 1002 35 3 Image Chart
2018 2 12 00 6.9 132.1 1002 35 3 Image Chart
2018 2 12 03 6.9 131.6 1002 35 3 Image Chart
2018 2 12 06 7.0 130.8 1002 35 3 Image Chart
2018 2 12 09 7.2 130.1 1002 35 3 Image Chart
2018 2 12 12 7.4 129.4 1002 35 3 Image Chart
2018 2 12 15 7.8 128.6 1002 35 3 Image Chart
2018 2 12 18 8.1 128.2 1002 35 3 Image Chart
2018 2 12 21 8.7 127.3 1002 35 3 Image Chart
2018 2 13 00 9.0 126.5 1002 35 3 Image Chart
2018 2 13 03 9.5 125.7 1004 35 3 Image Chart
2018 2 13 06 9.7 125.0 1004 35 3 Image Chart
2018 2 13 09 9.3 124.2 1004 35 3 Image Chart
2018 2 13 12 9.2 123.7 1004 35 3 Image Chart
2018 2 13 15 8.7 122.8 1004 35 3 Image Chart
2018 2 13 18 8.6 122.1 1004 35 3 Image Chart
2018 2 13 21 8.6 121.3 1004 35 3 Image Chart
2018 2 14 00 9.0 120.0 1006 0 2 Image Chart
Japan Meteorological Agency Best Track Data | Correction Date : 2018-02-14
< Typhoon 201801 2018 Season

Help